createdAt,value
2023-02-08T00:00:51.072Z,74.17
2023-02-08T00:05:44.114Z,74.21
2023-02-08T00:10:39.616Z,74.04
2023-02-08T00:15:36.044Z,74.02
2023-02-08T00:20:35.298Z,74.51
2023-02-08T00:25:41.404Z,74.53
2023-02-08T00:30:37.796Z,74.50
2023-02-08T00:35:42.692Z,74.56
2023-02-08T00:40:38.239Z,74.48
2023-02-08T00:45:34.294Z,74.68
2023-02-08T00:50:30.457Z,74.53
2023-02-08T00:55:41.060Z,74.52
2023-02-08T01:00:46.899Z,74.51
2023-02-08T01:11:34.213Z,74.74
2023-02-08T01:16:48.659Z,74.64
2023-02-08T01:21:55.033Z,74.77
2023-02-08T01:26:48.678Z,74.56
2023-02-08T01:31:46.205Z,74.88
2023-02-08T01:37:01.941Z,74.92
2023-02-08T01:42:29.223Z,74.95
2023-02-08T01:47:25.732Z,74.82
2023-02-08T01:52:45.168Z,74.84
2023-02-08T01:57:46.840Z,74.75
2023-02-08T02:02:53.585Z,74.77
2023-02-08T02:08:00.943Z,75.01
2023-02-08T02:13:10.094Z,75.09
2023-02-08T02:18:28.796Z,75.01
2023-02-08T02:23:59.618Z,75.18
2023-02-08T02:29:18.102Z,75.20
2023-02-08T02:34:56.755Z,75.03
2023-02-08T02:40:18.374Z,75.16
2023-02-08T02:45:56.225Z,74.90
2023-02-08T02:51:32.054Z,75.12
2023-02-08T02:56:49.301Z,75.31
2023-02-08T03:02:00.546Z,75.36
2023-02-08T03:13:35.938Z,75.34
2023-02-08T03:19:15.975Z,75.46
2023-02-08T03:24:50.863Z,75.23
2023-02-08T03:30:11.474Z,75.23
2023-02-08T03:35:16.678Z,75.25
2023-02-08T03:40:29.202Z,75.28
2023-02-08T03:45:50.802Z,75.64
2023-02-08T03:51:11.992Z,75.38
2023-02-08T04:07:25.687Z,75.66
2023-02-08T04:12:36.255Z,75.64
2023-02-08T04:17:32.447Z,75.74
2023-02-08T04:22:44.332Z,75.73
2023-02-08T04:27:48.833Z,75.93
2023-02-08T04:33:12.843Z,75.59
2023-02-08T04:38:14.290Z,75.83
2023-02-08T04:43:08.491Z,75.73
2023-02-08T04:48:07.072Z,75.73
2023-02-08T04:52:59.933Z,75.93
2023-02-08T04:57:53.069Z,76.06
2023-02-08T05:02:46.701Z,76.07
2023-02-08T05:07:39.470Z,76.18
2023-02-08T05:12:32.481Z,75.90
2023-02-08T05:17:25.303Z,75.57
2023-02-08T05:22:18.130Z,75.71
2023-02-08T05:27:11.026Z,76.28
2023-02-08T05:32:05.423Z,76.12
2023-02-08T05:36:58.385Z,75.94
2023-02-08T05:41:51.250Z,76.02
2023-02-08T05:46:45.191Z,75.82
2023-02-08T05:51:37.980Z,76.28
2023-02-08T05:56:31.643Z,76.30
2023-02-08T06:01:24.445Z,76.20
2023-02-08T06:06:17.221Z,76.30
2023-02-08T06:11:10.166Z,76.24
2023-02-08T06:16:12.239Z,76.01
2023-02-08T06:21:05.545Z,75.99
2023-02-08T06:25:58.508Z,76.18
2023-02-08T06:30:52.634Z,76.12
2023-02-08T06:35:48.928Z,75.98
2023-02-08T06:40:42.554Z,76.08
2023-02-08T06:45:35.667Z,75.96
2023-02-08T06:50:28.820Z,76.17
2023-02-08T06:55:21.636Z,76.45
2023-02-08T07:00:15.131Z,76.13
2023-02-08T07:05:09.550Z,76.16
2023-02-08T07:10:02.764Z,75.91
2023-02-08T07:14:55.537Z,75.83
2023-02-08T07:19:48.341Z,75.89
2023-02-08T07:24:42.726Z,75.94
2023-02-08T07:29:37.932Z,75.62
2023-02-08T07:34:32.169Z,75.29
2023-02-08T07:39:25.355Z,75.16
2023-02-08T07:44:18.216Z,75.38
2023-02-08T07:49:11.412Z,75.31
2023-02-08T07:54:04.796Z,75.15
2023-02-08T07:58:57.725Z,75.00
2023-02-08T08:03:52.055Z,75.00
2023-02-08T08:08:47.630Z,75.00
2023-02-08T08:13:40.539Z,74.36
2023-02-08T08:18:33.365Z,74.11
2023-02-08T08:23:28.484Z,73.87
2023-02-08T08:28:25.015Z,74.13
2023-02-08T08:33:17.961Z,73.79
2023-02-08T08:38:11.335Z,73.60
2023-02-08T08:43:04.454Z,73.57
2023-02-08T08:47:57.340Z,73.09
2023-02-08T08:52:52.921Z,72.92
2023-02-08T08:57:45.821Z,72.50
2023-02-08T09:02:39.839Z,72.42
2023-02-08T09:07:36.457Z,72.09
2023-02-08T09:12:30.129Z,71.76
2023-02-08T09:17:23.139Z,71.36
2023-02-08T09:22:18.880Z,71.21
2023-02-08T09:27:11.831Z,71.06
2023-02-08T09:32:05.373Z,70.71
2023-02-08T09:36:58.273Z,69.27
2023-02-08T09:42:08.194Z,69.56
2023-02-08T09:47:21.495Z,68.76
2023-02-08T09:52:22.494Z,68.20
2023-02-08T09:57:19.616Z,68.25
2023-02-08T10:02:45.128Z,66.72
2023-02-08T10:07:38.449Z,66.96
2023-02-08T10:12:55.952Z,67.64
2023-02-08T10:18:06.408Z,67.05
2023-02-08T10:23:05.066Z,66.56
2023-02-08T10:28:32.069Z,65.73
2023-02-08T10:33:43.945Z,64.61
2023-02-08T10:38:46.887Z,64.22
2023-02-08T10:43:47.472Z,64.06
2023-02-08T10:49:01.977Z,63.63
2023-02-08T10:53:55.366Z,63.84
2023-02-08T10:58:48.256Z,63.40
2023-02-08T11:04:11.395Z,63.13
2023-02-08T11:09:06.980Z,63.60
2023-02-08T11:14:18.594Z,64.04
2023-02-08T11:19:26.204Z,63.43
2023-02-08T11:24:31.004Z,63.60
2023-02-08T11:29:27.267Z,63.99
2023-02-08T11:34:26.344Z,63.81
2023-02-08T11:39:40.861Z,63.47
2023-02-08T11:44:44.828Z,63.04
2023-02-08T11:49:43.288Z,62.86
2023-02-08T11:54:42.895Z,62.53
2023-02-08T11:59:35.789Z,62.25
2023-02-08T12:04:28.608Z,61.48
2023-02-08T12:09:48.793Z,61.47
2023-02-08T12:15:01.993Z,60.64
2023-02-08T12:20:13.616Z,60.49
2023-02-08T12:25:42.561Z,60.08
2023-02-08T12:30:43.719Z,60.24
2023-02-08T12:36:18.341Z,59.90
2023-02-08T12:41:30.237Z,59.73
2023-02-08T12:46:42.474Z,59.67
2023-02-08T12:52:01.799Z,58.98
2023-02-08T12:57:02.450Z,58.78
2023-02-08T13:02:01.937Z,59.04
2023-02-08T13:06:59.896Z,59.23
2023-02-08T13:12:06.367Z,58.45
2023-02-08T13:17:05.982Z,57.49
2023-02-08T13:22:00.944Z,57.56
2023-02-08T13:26:54.992Z,57.72
2023-02-08T13:32:00.328Z,57.77
2023-02-08T13:37:16.582Z,57.18
2023-02-08T13:42:48.553Z,57.22
2023-02-08T13:47:47.345Z,57.54
2023-02-08T13:52:48.028Z,57.34
2023-02-08T13:57:56.699Z,57.03
2023-02-08T14:03:20.917Z,57.49
2023-02-08T14:08:45.844Z,57.85
2023-02-08T14:13:49.114Z,58.07
2023-02-08T14:18:53.067Z,58.81
2023-02-08T14:23:46.000Z,58.99
2023-02-08T14:28:45.024Z,59.74
2023-02-08T14:33:41.939Z,60.17
2023-02-08T14:38:52.103Z,60.65
2023-02-08T14:43:48.857Z,60.63
2023-02-08T14:48:51.018Z,60.73
2023-02-08T14:53:45.118Z,61.01
2023-02-08T14:58:42.633Z,61.90
2023-02-08T15:03:36.362Z,61.76
2023-02-08T15:08:29.180Z,62.32
2023-02-08T15:13:25.336Z,62.33
2023-02-08T15:18:25.950Z,62.55
2023-02-08T15:23:24.455Z,62.59
2023-02-08T15:28:21.929Z,62.90
2023-02-08T15:33:18.049Z,63.06
2023-02-08T15:38:20.316Z,63.59
2023-02-08T15:43:14.544Z,63.60
2023-02-08T15:48:08.720Z,63.81
2023-02-08T15:53:07.444Z,63.91
2023-02-08T15:58:07.207Z,64.54
2023-02-08T16:03:19.047Z,64.76
2023-02-08T16:08:23.974Z,64.59
2023-02-08T16:13:40.168Z,64.84
2023-02-08T16:18:46.309Z,64.96
2023-02-08T16:23:40.398Z,65.22
2023-02-08T16:28:34.922Z,65.12
2023-02-08T16:33:28.560Z,65.30
2023-02-08T16:38:24.283Z,65.45
2023-02-08T16:43:19.028Z,65.26
2023-02-08T16:48:35.061Z,65.64
2023-02-08T16:53:41.414Z,66.12
2023-02-08T16:58:34.802Z,66.29
2023-02-08T17:03:27.954Z,66.35
2023-02-08T17:08:22.458Z,66.44
2023-02-08T17:13:21.065Z,66.28
2023-02-08T17:18:14.676Z,66.63
2023-02-08T17:23:07.956Z,66.80
2023-02-08T17:28:03.786Z,66.87
2023-02-08T17:32:57.457Z,67.07
2023-02-08T17:37:53.162Z,67.02
2023-02-08T17:42:47.647Z,66.83
2023-02-08T17:47:42.690Z,66.89
2023-02-08T17:52:37.174Z,67.26
2023-02-08T17:57:35.384Z,67.08
2023-02-08T18:02:28.361Z,67.22
2023-02-08T18:07:21.691Z,67.41
2023-02-08T18:12:14.497Z,67.06
2023-02-08T18:17:07.335Z,67.89
2023-02-08T18:22:03.744Z,68.21
2023-02-08T18:26:58.341Z,68.01
2023-02-08T18:31:53.049Z,67.99
2023-02-08T18:36:46.777Z,67.90
2023-02-08T18:41:39.570Z,68.46
2023-02-08T18:46:33.168Z,68.48
2023-02-08T18:51:27.800Z,68.35
2023-02-08T18:56:24.335Z,68.85
2023-02-08T19:01:21.032Z,68.23
2023-02-08T19:06:18.248Z,68.68
2023-02-08T19:11:19.786Z,68.93
2023-02-08T19:16:13.895Z,68.65
2023-02-08T19:21:13.029Z,68.39
2023-02-08T19:26:09.026Z,68.79
2023-02-08T19:31:11.028Z,68.53
2023-02-08T19:36:11.943Z,68.93
2023-02-08T19:41:06.144Z,69.10
2023-02-08T19:46:00.173Z,69.00
2023-02-08T19:50:58.458Z,69.49
2023-02-08T19:56:03.804Z,69.02
2023-02-08T20:00:56.767Z,69.16
2023-02-08T20:05:51.076Z,69.07
2023-02-08T20:10:47.177Z,69.43
2023-02-08T20:15:42.393Z,69.52
2023-02-08T20:20:37.001Z,69.82
2023-02-08T20:25:30.681Z,69.30
2023-02-08T20:30:25.278Z,69.65
2023-02-08T20:35:18.836Z,70.02
2023-02-08T20:40:13.283Z,69.91
2023-02-08T20:45:07.350Z,69.92
2023-02-08T20:50:03.161Z,70.12
2023-02-08T20:55:03.136Z,70.16
2023-02-08T20:59:56.277Z,70.06
2023-02-08T21:04:49.686Z,69.96
2023-02-08T21:09:43.436Z,70.18
2023-02-08T21:14:36.676Z,69.88
2023-02-08T21:19:31.254Z,70.10
2023-02-08T21:24:25.255Z,70.61
2023-02-08T21:29:18.100Z,70.06
2023-02-08T21:34:12.972Z,70.00
2023-02-08T21:39:05.808Z,70.34
2023-02-08T21:44:00.765Z,70.39
2023-02-08T21:49:13.431Z,70.29
2023-02-08T21:54:24.513Z,70.32
2023-02-08T21:59:17.314Z,70.03
2023-02-08T22:04:10.117Z,70.63
2023-02-08T22:09:02.965Z,70.20
2023-02-08T22:13:55.762Z,70.26
2023-02-08T22:18:48.583Z,69.96
2023-02-08T22:23:41.389Z,70.34
2023-02-08T22:28:34.282Z,70.17
2023-02-08T22:33:27.143Z,70.27
2023-02-08T22:38:19.988Z,70.88
2023-02-08T22:43:12.775Z,70.75
2023-02-08T22:48:06.798Z,70.68
2023-02-08T22:52:59.745Z,70.82
2023-02-08T22:57:52.544Z,70.86
2023-02-08T23:02:45.843Z,71.20
2023-02-08T23:07:39.309Z,70.86
2023-02-08T23:12:32.305Z,70.88
2023-02-08T23:17:25.201Z,71.08
2023-02-08T23:22:18.000Z,70.79
2023-02-08T23:27:14.822Z,71.24
2023-02-08T23:32:07.693Z,70.79
2023-02-08T23:37:00.535Z,70.80
2023-02-08T23:41:57.244Z,70.92
2023-02-08T23:46:50.114Z,70.66
2023-02-08T23:51:45.719Z,70.54
2023-02-08T23:56:38.579Z,71.22
